Time;durP1;ratioP1;P1;durP2;ratioP2;P2;SDS_P1;SDS_P2;PMS_P1;PMS_P2;Temp;Humidity;BMP_temperature;BMP_pressure;BME280_temperature;BME280_humidity;BME280_pressure;Samples;Min_cycle;Max_cycle;Signal;HPM_P1;HPM_P2
2021/03/13 00:01:11;;;;;;;3.43;3.33;;;;;;;;;;5010818;28;20471;-13
2021/03/13 00:03:40;;;;;;;3.40;3.30;;;;;;;;;;5009784;28;20504;-13
2021/03/13 00:06:09;;;;;;;3.70;3.50;;;;;;;;;;5014379;28;20487;-14
2021/03/13 00:08:38;;;;;;;3.70;3.57;;;;;;;;;;5010396;28;20833;-13
2021/03/13 00:11:07;;;;;;;4.57;4.27;;;;;;;;;;4991463;28;20555;-14
2021/03/13 00:13:37;;;;;;;3.53;3.43;;;;;;;;;;5008292;28;20439;-13
2021/03/13 00:16:05;;;;;;;3.40;3.30;;;;;;;;;;5008313;28;20448;-13
2021/03/13 00:18:33;;;;;;;3.47;3.33;;;;;;;;;;4993003;28;20546;-14
2021/03/13 00:21:01;;;;;;;3.47;3.37;;;;;;;;;;5009491;28;20485;-14
2021/03/13 00:23:35;;;;;;;4.00;3.23;;;;;;;;;;5027325;28;20473;-13
2021/03/13 00:26:11;;;;;;;3.47;3.37;;;;;;;;;;5007769;28;20487;-14
2021/03/13 00:28:40;;;;;;;3.30;3.30;;;;;;;;;;5007364;28;20456;-12
2021/03/13 00:31:07;;;;;;;3.43;3.33;;;;;;;;;;5016539;28;20554;-12
2021/03/13 00:33:37;;;;;;;3.50;3.40;;;;;;;;;;4993769;28;20459;-13
2021/03/13 00:36:06;;;;;;;4.07;3.97;;;;;;;;;;5013219;28;20489;-13
2021/03/13 00:38:35;;;;;;;3.80;3.70;;;;;;;;;;5031000;28;20516;-13
2021/03/13 00:41:05;;;;;;;3.60;3.50;;;;;;;;;;5031460;28;20435;-13
2021/03/13 00:43:34;;;;;;;3.60;3.50;;;;;;;;;;5014177;28;20494;-13
2021/03/13 00:46:05;;;;;;;3.90;3.63;;;;;;;;;;5007398;28;20482;-14
2021/03/13 00:48:34;;;;;;;4.60;4.40;;;;;;;;;;4993474;28;20459;-14
2021/03/13 00:51:03;;;;;;;4.63;4.53;;;;;;;;;;5031847;28;20439;-13
2021/03/13 00:53:31;;;;;;;4.07;3.97;;;;;;;;;;5016181;28;20471;-13
2021/03/13 00:55:59;;;;;;;4.00;3.80;;;;;;;;;;5012675;28;20540;-13
2021/03/13 00:58:32;;;;;;;4.10;4.00;;;;;;;;;;4995547;28;20480;-13
2021/03/13 01:01:05;;;;;;;4.20;4.10;;;;;;;;;;5027176;28;20536;-14
2021/03/13 01:03:37;;;;;;;4.13;4.03;;;;;;;;;;4975965;28;20507;-13
2021/03/13 01:06:08;;;;;;;4.33;4.23;;;;;;;;;;4985253;28;20874;-13
2021/03/13 01:08:40;;;;;;;4.07;3.97;;;;;;;;;;4972838;28;20807;-13
2021/03/13 01:11:24;;;;;;;3.93;3.83;;;;;;;;;;5009788;28;20495;-13
2021/03/13 01:13:59;;;;;;;3.90;3.80;;;;;;;;;;5005811;28;20462;-13
2021/03/13 01:16:37;;;;;;;3.70;3.60;;;;;;;;;;5023210;28;20445;-13
2021/03/13 01:19:06;;;;;;;4.03;3.83;;;;;;;;;;4991025;28;20868;-13
2021/03/13 01:21:36;;;;;;;4.07;3.80;;;;;;;;;;5022843;28;20431;-13
2021/03/13 01:24:11;;;;;;;4.70;4.50;;;;;;;;;;5024112;28;20794;-13
2021/03/13 01:26:42;;;;;;;4.27;4.17;;;;;;;;;;5007564;28;20553;-12
2021/03/13 01:29:13;;;;;;;4.03;3.83;;;;;;;;;;5024192;28;20511;-12
2021/03/13 01:31:52;;;;;;;3.90;3.80;;;;;;;;;;5006484;28;20466;-12
2021/03/13 01:34:28;;;;;;;4.03;3.93;;;;;;;;;;5016308;28;21119;-12
2021/03/13 01:37:06;;;;;;;3.93;3.73;;;;;;;;;;5021964;28;20510;-13
2021/03/13 01:39:39;;;;;;;4.20;4.03;;;;;;;;;;5024126;28;20466;-12
2021/03/13 01:42:16;;;;;;;3.80;3.70;;;;;;;;;;5008356;28;20497;-15
2021/03/13 01:45:02;;;;;;;3.70;3.60;;;;;;;;;;5027813;28;20469;-14
2021/03/13 01:47:34;;;;;;;4.30;4.20;;;;;;;;;;5027784;28;20442;-13
2021/03/13 01:50:09;;;;;;;3.80;3.70;;;;;;;;;;5027768;28;20434;-13
2021/03/13 01:52:55;;;;;;;4.23;4.03;;;;;;;;;;5027758;28;20687;-13
2021/03/13 01:55:32;;;;;;;4.17;3.97;;;;;;;;;;5011288;28;20439;-13
2021/03/13 01:58:06;;;;;;;4.17;3.97;;;;;;;;;;4993836;28;20479;-14
2021/03/13 02:00:46;;;;;;;3.90;3.70;;;;;;;;;;5028151;28;20435;-14
2021/03/13 02:03:27;;;;;;;4.23;4.03;;;;;;;;;;5014285;28;20468;-12
2021/03/13 02:05:58;;;;;;;4.80;4.60;;;;;;;;;;5001572;28;20474;-13
2021/03/13 02:08:29;;;;;;;4.60;4.40;;;;;;;;;;5012824;28;20456;-13
2021/03/13 02:11:08;;;;;;;4.60;4.30;;;;;;;;;;4990151;28;20924;-13
2021/03/13 02:13:48;;;;;;;4.10;4.00;;;;;;;;;;5008103;28;20452;-13
2021/03/13 02:16:30;;;;;;;3.70;3.60;;;;;;;;;;5026974;28;20431;-12
2021/03/13 02:19:10;;;;;;;4.30;4.00;;;;;;;;;;4989775;28;20540;-13
2021/03/13 02:21:41;;;;;;;4.40;4.13;;;;;;;;;;5009982;28;20431;-14
2021/03/13 02:24:34;;;;;;;4.30;4.00;;;;;;;;;;4998420;28;20494;-13
2021/03/13 02:27:10;;;;;;;3.90;3.80;;;;;;;;;;4994060;28;20477;-13
2021/03/13 02:32:55;;;;;;;3.90;3.70;;;;;;;;;;5027084;28;20455;-13
2021/03/13 02:35:26;;;;;;;3.70;3.60;;;;;;;;;;4981603;28;20479;-13
2021/03/13 02:37:57;;;;;;;4.10;3.90;;;;;;;;;;4986775;28;20514;-13
2021/03/13 02:40:31;;;;;;;3.80;3.67;;;;;;;;;;5019588;28;20434;-13
2021/03/13 02:43:03;;;;;;;4.00;3.80;;;;;;;;;;4987940;28;20471;-13
2021/03/13 02:45:40;;;;;;;4.47;4.07;;;;;;;;;;5005188;28;20443;-13
2021/03/13 02:48:09;;;;;;;4.10;3.93;;;;;;;;;;5006032;28;20443;-13
2021/03/13 02:50:39;;;;;;;4.00;3.80;;;;;;;;;;5006535;28;20518;-13
2021/03/13 02:53:23;;;;;;;3.93;3.83;;;;;;;;;;5004886;28;20554;-13
2021/03/13 02:55:54;;;;;;;4.00;3.80;;;;;;;;;;5005511;28;20443;-13
2021/03/13 02:58:26;;;;;;;4.07;3.97;;;;;;;;;;5008052;28;20455;-13
2021/03/13 03:00:58;;;;;;;4.13;3.80;;;;;;;;;;5010084;28;20474;-13
2021/03/13 03:03:26;;;;;;;4.37;4.10;;;;;;;;;;4997684;28;20593;-13
2021/03/13 03:06:15;;;;;;;4.17;3.90;;;;;;;;;;5023610;28;20451;-13
2021/03/13 03:08:49;;;;;;;3.97;3.87;;;;;;;;;;5008216;28;20447;-13
2021/03/13 03:11:24;;;;;;;4.37;4.17;;;;;;;;;;5008918;28;20447;-13
2021/03/13 03:13:58;;;;;;;4.67;4.50;;;;;;;;;;5008993;28;20471;-12
2021/03/13 03:16:30;;;;;;;4.60;4.20;;;;;;;;;;5007960;28;20443;-13
2021/03/13 03:19:02;;;;;;;4.90;4.50;;;;;;;;;;5025562;28;20483;-13
2021/03/13 03:21:36;;;;;;;4.33;4.20;;;;;;;;;;5024502;28;20941;-12
2021/03/13 03:24:07;;;;;;;3.90;3.70;;;;;;;;;;4988969;28;20484;-12
2021/03/13 03:26:37;;;;;;;4.10;3.97;;;;;;;;;;5019707;28;20439;-12
2021/03/13 03:29:05;;;;;;;4.03;3.90;;;;;;;;;;5016814;28;20443;-12
2021/03/13 03:31:35;;;;;;;4.27;4.17;;;;;;;;;;5008714;28;20874;-13
2021/03/13 03:34:04;;;;;;;4.93;4.63;;;;;;;;;;5009484;28;20459;-13
2021/03/13 03:36:35;;;;;;;4.40;4.30;;;;;;;;;;5019340;28;20441;-13
2021/03/13 03:39:05;;;;;;;5.17;4.77;;;;;;;;;;4989112;28;20462;-13
2021/03/13 03:41:42;;;;;;;4.70;4.40;;;;;;;;;;4989419;28;20432;-13
2021/03/13 03:44:15;;;;;;;4.63;4.40;;;;;;;;;;4989174;28;20445;-13
2021/03/13 03:46:55;;;;;;;4.90;4.70;;;;;;;;;;4987885;28;20452;-13
2021/03/13 03:49:23;;;;;;;4.77;4.47;;;;;;;;;;4988790;28;20479;-13
2021/03/13 03:52:05;;;;;;;4.33;4.23;;;;;;;;;;5022775;28;20442;-12
2021/03/13 03:54:36;;;;;;;4.63;4.50;;;;;;;;;;5008841;28;20439;-12
2021/03/13 03:57:06;;;;;;;5.13;4.90;;;;;;;;;;5012974;28;20937;-13
2021/03/13 03:59:34;;;;;;;4.17;4.07;;;;;;;;;;5003463;28;20496;-13
2021/03/13 04:02:05;;;;;;;5.00;4.20;;;;;;;;;;5025567;28;20436;-13
2021/03/13 04:04:34;;;;;;;4.90;4.57;;;;;;;;;;5007080;28;20782;-13
2021/03/13 04:07:05;;;;;;;4.53;4.33;;;;;;;;;;5020688;28;20439;-13
2021/03/13 04:09:34;;;;;;;5.90;4.90;;;;;;;;;;5004685;28;20456;-12
2021/03/13 04:12:04;;;;;;;4.53;4.43;;;;;;;;;;5005649;28;20448;-12
2021/03/13 04:14:32;;;;;;;5.27;4.83;;;;;;;;;;4996355;28;20797;-12
2021/03/13 04:17:04;;;;;;;5.20;4.90;;;;;;;;;;5007609;28;20459;-13
2021/03/13 04:19:34;;;;;;;4.90;4.60;;;;;;;;;;5025605;28;20434;-13
2021/03/13 04:22:03;;;;;;;4.90;4.70;;;;;;;;;;5019909;28;20460;-12
2021/03/13 04:24:33;;;;;;;5.10;4.90;;;;;;;;;;5020719;28;20490;-12
2021/03/13 04:27:01;;;;;;;5.10;4.80;;;;;;;;;;5024200;28;20440;-13
2021/03/13 04:29:29;;;;;;;5.40;4.80;;;;;;;;;;5022626;28;20474;-13
2021/03/13 04:32:01;;;;;;;5.97;5.47;;;;;;;;;;5006225;28;20439;-13
2021/03/13 04:34:31;;;;;;;5.60;5.20;;;;;;;;;;5007514;28;20436;-13
2021/03/13 04:37:01;;;;;;;5.63;5.20;;;;;;;;;;5016097;28;20555;-12
2021/03/13 04:39:31;;;;;;;5.27;4.97;;;;;;;;;;4987410;28;20488;-12
2021/03/13 04:41:58;;;;;;;5.70;5.20;;;;;;;;;;4988158;28;20483;-12
2021/03/13 04:44:31;;;;;;;6.30;6.00;;;;;;;;;;4987735;28;20437;-13
2021/03/13 04:47:01;;;;;;;5.93;5.50;;;;;;;;;;5012363;28;20748;-13
2021/03/13 04:49:31;;;;;;;5.80;5.43;;;;;;;;;;5006929;28;20432;-13
2021/03/13 04:52:00;;;;;;;6.20;5.87;;;;;;;;;;5022694;28;20446;-13
2021/03/13 04:54:29;;;;;;;6.10;5.80;;;;;;;;;;5004726;28;20463;-13
2021/03/13 04:56:57;;;;;;;5.20;5.00;;;;;;;;;;5023847;28;20441;-13
2021/03/13 04:59:26;;;;;;;5.67;5.20;;;;;;;;;;5006486;28;20466;-13
2021/03/13 05:01:54;;;;;;;9.43;8.53;;;;;;;;;;5007176;28;20500;-13
2021/03/13 05:04:23;;;;;;;5.77;5.47;;;;;;;;;;4987863;28;20476;-13
2021/03/13 05:06:58;;;;;;;10.20;9.20;;;;;;;;;;4986229;28;20491;-13
2021/03/13 05:09:26;;;;;;;6.20;5.80;;;;;;;;;;5003923;28;20459;-13
2021/03/13 05:11:53;;;;;;;6.90;6.40;;;;;;;;;;4987170;28;20462;-13
2021/03/13 05:14:26;;;;;;;6.50;6.07;;;;;;;;;;5003133;28;20436;-13
2021/03/13 05:16:53;;;;;;;6.30;6.00;;;;;;;;;;5004335;28;21005;-12
2021/03/13 05:19:23;;;;;;;8.23;7.73;;;;;;;;;;5008199;28;20447;-13
2021/03/13 05:21:51;;;;;;;6.03;5.73;;;;;;;;;;4991074;28;20491;-12
2021/03/13 05:24:20;;;;;;;13.03;11.93;;;;;;;;;;4989048;28;20487;-12
2021/03/13 05:26:51;;;;;;;6.00;5.80;;;;;;;;;;4998670;28;20467;-12
2021/03/13 05:29:32;;;;;;;6.67;6.30;;;;;;;;;;5015556;28;20471;-12
2021/03/13 05:31:59;;;;;;;6.77;6.17;;;;;;;;;;5004649;28;20516;-12
2021/03/13 05:34:28;;;;;;;7.17;5.87;;;;;;;;;;4988856;28;20452;-12
2021/03/13 05:36:57;;;;;;;6.87;6.57;;;;;;;;;;5006792;28;20509;-12
2021/03/13 05:39:27;;;;;;;6.63;6.43;;;;;;;;;;5023286;28;20449;-12
2021/03/13 05:41:54;;;;;;;8.40;8.00;;;;;;;;;;4988982;28;20546;-12
2021/03/13 05:44:21;;;;;;;5.97;5.77;;;;;;;;;;5023644;28;20432;-13
2021/03/13 05:46:50;;;;;;;6.63;6.23;;;;;;;;;;4985946;28;20452;-13
2021/03/13 05:49:19;;;;;;;5.70;5.50;;;;;;;;;;5019081;28;20798;-13
2021/03/13 05:51:48;;;;;;;5.47;5.37;;;;;;;;;;5015434;28;20463;-13
2021/03/13 05:54:17;;;;;;;5.43;5.20;;;;;;;;;;5023657;28;20549;-13
2021/03/13 05:56:48;;;;;;;5.53;5.33;;;;;;;;;;5007309;28;20492;-13
2021/03/13 05:59:16;;;;;;;5.70;5.50;;;;;;;;;;5018333;28;20725;-12
2021/03/13 06:01:45;;;;;;;6.33;5.73;;;;;;;;;;5026300;28;20466;-12
2021/03/13 06:04:16;;;;;;;5.53;5.23;;;;;;;;;;5026865;28;20459;-12
2021/03/13 06:06:45;;;;;;;6.07;5.43;;;;;;;;;;5008320;28;20829;-12
2021/03/13 06:09:13;;;;;;;5.00;4.80;;;;;;;;;;5003705;28;20454;-12
2021/03/13 06:11:42;;;;;;;5.70;5.30;;;;;;;;;;5008675;28;20474;-13
2021/03/13 06:14:12;;;;;;;6.43;6.13;;;;;;;;;;5010146;28;20475;-12
2021/03/13 06:16:43;;;;;;;6.00;5.50;;;;;;;;;;5020989;28;20444;-13
2021/03/13 06:19:14;;;;;;;5.17;5.03;;;;;;;;;;5025384;28;20443;-13
2021/03/13 06:21:42;;;;;;;5.33;4.93;;;;;;;;;;5008638;28;20436;-13
2021/03/13 06:24:18;;;;;;;5.47;4.80;;;;;;;;;;5024485;28;20475;-13
2021/03/13 06:26:55;;;;;;;5.10;5.00;;;;;;;;;;4991274;28;20483;-13
2021/03/13 06:29:26;;;;;;;5.63;5.33;;;;;;;;;;5002738;28;20464;-13
2021/03/13 06:32:10;;;;;;;4.87;4.70;;;;;;;;;;5005681;28;20436;-13
2021/03/13 06:34:38;;;;;;;5.47;5.17;;;;;;;;;;5016683;28;20538;-13
2021/03/13 06:37:25;;;;;;;5.20;5.00;;;;;;;;;;5024536;28;20503;-13
2021/03/13 06:39:53;;;;;;;5.30;5.10;;;;;;;;;;5024528;28;20462;-12
2021/03/13 06:42:21;;;;;;;6.90;6.40;;;;;;;;;;5007703;28;20477;-12
2021/03/13 06:44:58;;;;;;;4.83;4.50;;;;;;;;;;5023223;28;20509;-13
2021/03/13 06:47:30;;;;;;;4.97;4.67;;;;;;;;;;5024516;28;20443;-13
2021/03/13 06:50:12;;;;;;;4.57;4.37;;;;;;;;;;5007585;28;20711;-12
2021/03/13 06:52:40;;;;;;;5.80;5.60;;;;;;;;;;5005424;28;20436;-13
2021/03/13 06:55:18;;;;;;;8.83;5.83;;;;;;;;;;5014991;28;20479;-13
2021/03/13 06:57:48;;;;;;;6.23;5.80;;;;;;;;;;4990564;28;20462;-13
2021/03/13 07:00:28;;;;;;;5.80;5.70;;;;;;;;;;5024276;28;20473;-13
2021/03/13 07:03:06;;;;;;;6.40;6.20;;;;;;;;;;4995057;28;20478;-13
2021/03/13 07:05:34;;;;;;;6.70;6.20;;;;;;;;;;5023167;28;20552;-14
2021/03/13 07:08:17;;;;;;;6.57;6.23;;;;;;;;;;5023778;28;20444;-14
2021/03/13 07:10:45;;;;;;;5.23;5.13;;;;;;;;;;5021851;28;20491;-14
2021/03/13 07:13:30;;;;;;;6.47;6.20;;;;;;;;;;5006097;28;20542;-13
2021/03/13 07:16:14;;;;;;;6.07;5.77;;;;;;;;;;4987809;28;21015;-12
2021/03/13 07:18:42;;;;;;;7.47;7.07;;;;;;;;;;5001079;28;20488;-13
2021/03/13 07:21:10;;;;;;;5.70;5.50;;;;;;;;;;4983884;28;20618;-13
2021/03/13 07:23:39;;;;;;;6.30;5.90;;;;;;;;;;5010613;28;20471;-13
2021/03/13 07:26:13;;;;;;;6.23;6.03;;;;;;;;;;5005054;28;20674;-13
2021/03/13 07:28:44;;;;;;;6.07;5.67;;;;;;;;;;4990002;28;20477;-14
2021/03/13 07:31:11;;;;;;;6.20;5.90;;;;;;;;;;5004683;28;20478;-13
2021/03/13 07:33:40;;;;;;;6.03;5.70;;;;;;;;;;5023724;28;20436;-13
2021/03/13 07:36:10;;;;;;;6.00;5.57;;;;;;;;;;5023291;28;20455;-13
2021/03/13 07:38:40;;;;;;;5.90;5.60;;;;;;;;;;4970309;28;20460;-12
2021/03/13 07:41:10;;;;;;;6.93;6.40;;;;;;;;;;4999957;28;20439;-14
2021/03/13 07:43:39;;;;;;;5.93;5.70;;;;;;;;;;4988067;28;20554;-14
2021/03/13 07:46:08;;;;;;;6.63;6.23;;;;;;;;;;5019790;28;20497;-13
2021/03/13 07:48:37;;;;;;;6.00;5.70;;;;;;;;;;5021541;28;20486;-14
2021/03/13 07:51:05;;;;;;;7.60;5.87;;;;;;;;;;5004018;28;20720;-13
2021/03/13 07:53:39;;;;;;;5.93;5.63;;;;;;;;;;5004370;28;20513;-14
2021/03/13 07:56:09;;;;;;;6.10;5.80;;;;;;;;;;5022070;28;20442;-14
2021/03/13 07:58:39;;;;;;;6.27;5.97;;;;;;;;;;5004027;28;21062;-14
2021/03/13 08:01:06;;;;;;;6.20;5.63;;;;;;;;;;4968313;28;20589;-13
2021/03/13 08:03:40;;;;;;;6.20;5.80;;;;;;;;;;4984585;28;20934;-13
2021/03/13 08:06:09;;;;;;;5.83;5.63;;;;;;;;;;5001176;28;20448;-13
2021/03/13 08:08:40;;;;;;;6.30;5.90;;;;;;;;;;4984556;28;20969;-13
2021/03/13 08:11:10;;;;;;;5.80;5.60;;;;;;;;;;4966934;28;20881;-13
2021/03/13 08:13:55;;;;;;;6.30;6.10;;;;;;;;;;4997544;28;20439;-13
2021/03/13 08:16:36;;;;;;;7.60;7.30;;;;;;;;;;5018998;28;20558;-14
2021/03/13 08:19:26;;;;;;;5.80;5.50;;;;;;;;;;5001620;28;20436;-14
2021/03/13 08:22:08;;;;;;;6.07;5.87;;;;;;;;;;5003345;28;20466;-14
2021/03/13 08:24:42;;;;;;;6.10;5.80;;;;;;;;;;5003111;28;20459;-14
2021/03/13 08:27:11;;;;;;;5.77;5.57;;;;;;;;;;5020342;28;20445;-14
2021/03/13 08:29:57;;;;;;;5.80;5.70;;;;;;;;;;5018906;28;20762;-14
2021/03/13 08:32:41;;;;;;;6.67;6.23;;;;;;;;;;5021191;28;20439;-13
2021/03/13 08:35:10;;;;;;;5.40;5.20;;;;;;;;;;5000040;28;20459;-13
2021/03/13 08:37:47;;;;;;;5.43;5.33;;;;;;;;;;4974563;28;20554;-13
2021/03/13 08:40:23;;;;;;;5.77;5.47;;;;;;;;;;5007921;28;20439;-14
2021/03/13 08:42:52;;;;;;;5.50;5.20;;;;;;;;;;5018880;28;20471;-14
2021/03/13 08:45:21;;;;;;;5.27;5.07;;;;;;;;;;5016933;28;20483;-13
2021/03/13 08:47:52;;;;;;;5.77;5.57;;;;;;;;;;4993352;28;20467;-14
2021/03/13 08:50:38;;;;;;;5.57;5.47;;;;;;;;;;5018199;28;20440;-13
2021/03/13 08:53:21;;;;;;;6.00;5.70;;;;;;;;;;5012438;28;20472;-13
2021/03/13 08:55:50;;;;;;;6.30;6.00;;;;;;;;;;5001966;28;20470;-13
2021/03/13 08:58:33;;;;;;;6.10;5.80;;;;;;;;;;5019230;28;20442;-13
2021/03/13 09:01:15;;;;;;;6.27;5.97;;;;;;;;;;5000540;28;20454;-14
2021/03/13 09:03:51;;;;;;;6.37;6.10;;;;;;;;;;4996534;28;20620;-14
2021/03/13 09:06:20;;;;;;;6.07;5.90;;;;;;;;;;4981088;28;20451;-14
2021/03/13 09:08:47;;;;;;;6.13;5.97;;;;;;;;;;4998453;28;20456;-15
2021/03/13 09:11:27;;;;;;;6.60;6.30;;;;;;;;;;4998721;28;20432;-14
2021/03/13 09:14:01;;;;;;;7.10;6.80;;;;;;;;;;5010791;28;20446;-13
2021/03/13 09:16:28;;;;;;;7.50;7.10;;;;;;;;;;5019113;28;20913;-13
2021/03/13 09:18:56;;;;;;;8.27;7.30;;;;;;;;;;5016892;28;20507;-14
2021/03/13 09:21:40;;;;;;;6.47;6.27;;;;;;;;;;5019123;28;20439;-13
2021/03/13 09:24:08;;;;;;;5.90;5.70;;;;;;;;;;5004930;28;20518;-14
2021/03/13 09:26:37;;;;;;;6.43;6.10;;;;;;;;;;5018223;28;20447;-14
2021/03/13 09:29:05;;;;;;;6.43;6.03;;;;;;;;;;5017644;28;20970;-13
2021/03/13 09:31:36;;;;;;;6.13;5.90;;;;;;;;;;5018803;28;20857;-14
2021/03/13 09:34:18;;;;;;;6.63;6.43;;;;;;;;;;4999925;28;20470;-13
2021/03/13 09:36:47;;;;;;;5.83;5.73;;;;;;;;;;5017972;28;20502;-14
2021/03/13 09:39:22;;;;;;;6.70;6.40;;;;;;;;;;5018433;28;20450;-14
2021/03/13 09:42:07;;;;;;;7.30;7.00;;;;;;;;;;5014810;28;20505;-13
2021/03/13 09:44:35;;;;;;;5.53;5.37;;;;;;;;;;5007915;28;21074;-14
2021/03/13 09:47:10;;;;;;;5.97;5.67;;;;;;;;;;4989480;28;20439;-14
2021/03/13 09:49:37;;;;;;;5.50;5.40;;;;;;;;;;5006761;28;20496;-15
2021/03/13 09:52:06;;;;;;;6.00;5.80;;;;;;;;;;4990901;28;20440;-15
2021/03/13 09:54:35;;;;;;;5.70;5.60;;;;;;;;;;5008680;28;20474;-15
2021/03/13 09:57:11;;;;;;;5.70;5.60;;;;;;;;;;4988992;28;20447;-15
2021/03/13 09:59:39;;;;;;;6.17;5.60;;;;;;;;;;4989374;28;20467;-15
2021/03/13 10:02:07;;;;;;;6.50;6.20;;;;;;;;;;4991304;28;20493;-16
2021/03/13 10:04:36;;;;;;;6.00;5.70;;;;;;;;;;5012382;28;20491;-16
2021/03/13 10:07:04;;;;;;;5.87;5.70;;;;;;;;;;5010017;28;20466;-18
2021/03/13 10:09:32;;;;;;;5.93;5.80;;;;;;;;;;5007176;28;20625;-17
2021/03/13 10:12:04;;;;;;;5.90;5.80;;;;;;;;;;4992828;28;20865;-15
2021/03/13 10:14:40;;;;;;;6.00;5.70;;;;;;;;;;5009920;28;20440;-16
2021/03/13 10:17:10;;;;;;;6.80;6.13;;;;;;;;;;5009487;28;20470;-17
2021/03/13 10:19:40;;;;;;;6.80;6.20;;;;;;;;;;5007632;28;20470;-15
2021/03/13 10:22:11;;;;;;;6.33;6.13;;;;;;;;;;5009449;28;20553;-15
2021/03/13 10:24:45;;;;;;;5.90;5.70;;;;;;;;;;5011264;28;20529;-15
2021/03/13 10:27:19;;;;;;;6.20;5.90;;;;;;;;;;5013624;28;20435;-17
2021/03/13 10:29:54;;;;;;;6.30;6.10;;;;;;;;;;5015792;28;20691;-17
2021/03/13 10:32:25;;;;;;;6.30;6.13;;;;;;;;;;5015095;28;20473;-15
2021/03/13 10:35:12;;;;;;;6.13;5.93;;;;;;;;;;5011860;28;20539;-16
2021/03/13 10:37:41;;;;;;;6.67;6.50;;;;;;;;;;5011040;28;21026;-15
2021/03/13 10:40:11;;;;;;;6.40;6.10;;;;;;;;;;5010967;28;20501;-15
2021/03/13 10:42:40;;;;;;;6.30;6.10;;;;;;;;;;5006168;28;20505;-15
2021/03/13 10:45:19;;;;;;;6.10;5.90;;;;;;;;;;5010422;28;20479;-16
2021/03/13 10:47:47;;;;;;;7.17;6.87;;;;;;;;;;5011226;28;21220;-16
2021/03/13 10:50:16;;;;;;;6.20;6.00;;;;;;;;;;4995674;28;20482;-16
2021/03/13 10:52:51;;;;;;;6.40;6.10;;;;;;;;;;5013063;28;20436;-16
2021/03/13 10:55:38;;;;;;;5.93;5.73;;;;;;;;;;5012171;28;20439;-15
2021/03/13 10:58:06;;;;;;;5.77;5.60;;;;;;;;;;4994804;28;20486;-15
2021/03/13 11:00:35;;;;;;;5.60;5.50;;;;;;;;;;5011542;28;20450;-15
2021/03/13 11:03:03;;;;;;;6.57;6.37;;;;;;;;;;5010427;28;20582;-14
2021/03/13 11:05:32;;;;;;;6.10;6.00;;;;;;;;;;5010717;28;20447;-14
2021/03/13 11:08:01;;;;;;;5.80;5.60;;;;;;;;;;5010928;28;20446;-16
2021/03/13 11:10:31;;;;;;;6.50;5.90;;;;;;;;;;5009211;28;20454;-16
2021/03/13 11:13:02;;;;;;;6.40;6.20;;;;;;;;;;5011658;28;20499;-15
2021/03/13 11:15:32;;;;;;;6.43;6.23;;;;;;;;;;5009982;28;20451;-15
2021/03/13 11:18:00;;;;;;;5.90;5.80;;;;;;;;;;4993598;28;20470;-15
2021/03/13 11:20:31;;;;;;;6.03;5.93;;;;;;;;;;5008937;28;20446;-16
2021/03/13 11:22:59;;;;;;;6.30;6.10;;;;;;;;;;5011744;28;20924;-16
2021/03/13 11:25:27;;;;;;;6.13;5.87;;;;;;;;;;5013523;28;20454;-14
2021/03/13 11:27:55;;;;;;;6.97;6.67;;;;;;;;;;5011790;28;20451;-15
2021/03/13 11:30:23;;;;;;;5.90;5.70;;;;;;;;;;5011558;28;20523;-15
2021/03/13 11:32:52;;;;;;;5.83;5.73;;;;;;;;;;5011664;28;20447;-14
2021/03/13 11:35:20;;;;;;;5.90;5.80;;;;;;;;;;5010176;28;20479;-15
2021/03/13 11:37:51;;;;;;;6.40;6.00;;;;;;;;;;5002747;28;20446;-14
2021/03/13 11:40:19;;;;;;;6.27;6.17;;;;;;;;;;5010367;28;20440;-14
2021/03/13 11:42:49;;;;;;;5.53;5.43;;;;;;;;;;5011105;28;20439;-14
2021/03/13 11:45:18;;;;;;;6.53;6.33;;;;;;;;;;5008366;28;20561;-14
2021/03/13 11:47:47;;;;;;;6.10;5.90;;;;;;;;;;5011342;28;20450;-14
2021/03/13 11:50:15;;;;;;;5.93;5.77;;;;;;;;;;5010608;28;20864;-14
2021/03/13 11:52:45;;;;;;;6.37;6.10;;;;;;;;;;5010197;28;20466;-14
2021/03/13 11:55:13;;;;;;;7.13;6.00;;;;;;;;;;5010278;28;20450;-14
2021/03/13 11:57:42;;;;;;;6.60;6.30;;;;;;;;;;5009568;28;20440;-14
2021/03/13 12:00:11;;;;;;;6.07;5.90;;;;;;;;;;5010163;28;20455;-14
2021/03/13 12:02:39;;;;;;;6.37;6.17;;;;;;;;;;5010409;28;20601;-14
2021/03/13 12:05:08;;;;;;;6.10;5.90;;;;;;;;;;5010259;28;20554;-16
2021/03/13 12:07:38;;;;;;;6.40;6.23;;;;;;;;;;5010882;28;20565;-14
2021/03/13 12:10:07;;;;;;;5.90;5.70;;;;;;;;;;5009526;28;20477;-14
2021/03/13 12:12:37;;;;;;;6.20;6.00;;;;;;;;;;4991798;28;20470;-15
2021/03/13 12:15:07;;;;;;;6.20;6.00;;;;;;;;;;5011754;28;20425;-15
2021/03/13 12:17:36;;;;;;;6.30;6.10;;;;;;;;;;5010343;28;20895;-14
2021/03/13 12:20:07;;;;;;;6.83;6.63;;;;;;;;;;5008452;28;20431;-15
2021/03/13 12:22:36;;;;;;;6.27;6.07;;;;;;;;;;5008769;28;20597;-15
2021/03/13 12:25:04;;;;;;;6.80;6.47;;;;;;;;;;5007456;28;20680;-14
2021/03/13 12:27:39;;;;;;;6.93;6.60;;;;;;;;;;4991328;28;20459;-14
2021/03/13 12:30:08;;;;;;;6.60;6.30;;;;;;;;;;5007950;28;20529;-14
2021/03/13 12:32:37;;;;;;;6.93;6.73;;;;;;;;;;5007471;28;20499;-14
2021/03/13 12:35:07;;;;;;;6.77;6.60;;;;;;;;;;5007685;28;20970;-14
2021/03/13 12:37:35;;;;;;;7.50;7.00;;;;;;;;;;5010379;28;20447;-14
2021/03/13 12:40:04;;;;;;;7.17;6.70;;;;;;;;;;5010104;28;20517;-14
2021/03/13 12:42:34;;;;;;;6.83;6.63;;;;;;;;;;5011489;28;21218;-14
2021/03/13 12:45:02;;;;;;;6.33;6.23;;;;;;;;;;5010284;28;20576;-15
2021/03/13 12:47:30;;;;;;;6.80;6.60;;;;;;;;;;5010730;28;20455;-14
2021/03/13 12:49:58;;;;;;;7.00;6.80;;;;;;;;;;5010395;28;20527;-14
2021/03/13 12:52:26;;;;;;;6.80;6.60;;;;;;;;;;5011504;28;20456;-15
2021/03/13 12:54:55;;;;;;;6.40;6.20;;;;;;;;;;5011499;28;20450;-15
2021/03/13 12:57:22;;;;;;;6.83;6.53;;;;;;;;;;5009057;28;20867;-15
2021/03/13 12:59:52;;;;;;;6.40;6.20;;;;;;;;;;5012928;28;20550;-15
2021/03/13 13:02:20;;;;;;;6.40;6.20;;;;;;;;;;5010039;28;20447;-15
2021/03/13 13:04:51;;;;;;;6.50;6.30;;;;;;;;;;4990744;28;20468;-14
2021/03/13 13:07:22;;;;;;;6.13;6.03;;;;;;;;;;5009563;28;20502;-14
2021/03/13 13:09:51;;;;;;;7.13;6.80;;;;;;;;;;4986918;28;20448;-14
2021/03/13 13:12:22;;;;;;;7.73;7.33;;;;;;;;;;5007261;28;20536;-15
2021/03/13 13:14:52;;;;;;;7.03;6.83;;;;;;;;;;5009588;28;20436;-14
2021/03/13 13:17:23;;;;;;;7.07;6.57;;;;;;;;;;5011214;28;20515;-15
2021/03/13 13:19:54;;;;;;;7.10;6.90;;;;;;;;;;4992329;28;20439;-14
2021/03/13 13:22:21;;;;;;;7.50;6.87;;;;;;;;;;5009366;28;20534;-14
2021/03/13 13:24:49;;;;;;;6.40;6.20;;;;;;;;;;5009211;28;20527;-14
2021/03/13 13:27:18;;;;;;;7.00;6.70;;;;;;;;;;4992458;28;20956;-14
2021/03/13 13:29:46;;;;;;;6.60;6.40;;;;;;;;;;5010400;28;20822;-14
2021/03/13 13:32:16;;;;;;;6.17;6.07;;;;;;;;;;5010970;28;21046;-14
2021/03/13 13:34:43;;;;;;;6.80;6.60;;;;;;;;;;5011336;28;20909;-14
2021/03/13 13:37:12;;;;;;;6.70;6.50;;;;;;;;;;5010364;28;20498;-15
2021/03/13 13:39:44;;;;;;;6.90;6.60;;;;;;;;;;4976605;28;20463;-14
2021/03/13 13:42:17;;;;;;;13.70;12.33;;;;;;;;;;4995640;28;20482;-14
2021/03/13 13:44:47;;;;;;;20.10;19.30;;;;;;;;;;4989344;28;20469;-17
2021/03/13 13:47:17;;;;;;;17.60;16.90;;;;;;;;;;4995356;28;20441;-17
2021/03/13 13:49:44;;;;;;;16.93;15.97;;;;;;;;;;4996910;28;20471;-16
2021/03/13 13:52:13;;;;;;;14.83;14.23;;;;;;;;;;4981723;28;20444;-16
2021/03/13 13:54:40;;;;;;;13.00;12.27;;;;;;;;;;4996871;28;20471;-16
2021/03/13 13:57:09;;;;;;;11.27;10.87;;;;;;;;;;4995707;28;20487;-16
2021/03/13 13:59:36;;;;;;;9.80;9.50;;;;;;;;;;4992411;28;20444;-15
2021/03/13 14:02:05;;;;;;;9.93;9.60;;;;;;;;;;4993370;28;20447;-15
2021/03/13 14:04:42;;;;;;;9.70;9.40;;;;;;;;;;4997430;28;20933;-16
2021/03/13 14:07:11;;;;;;;9.47;9.17;;;;;;;;;;4994933;28;20473;-15
2021/03/13 14:09:38;;;;;;;9.80;9.50;;;;;;;;;;4998593;28;20443;-16
2021/03/13 14:12:07;;;;;;;9.80;9.60;;;;;;;;;;5017760;28;20612;-16
2021/03/13 14:14:35;;;;;;;9.60;9.30;;;;;;;;;;5016666;28;20444;-15
2021/03/13 14:17:02;;;;;;;8.33;8.13;;;;;;;;;;4999814;28;20494;-16
2021/03/13 14:19:30;;;;;;;7.93;7.73;;;;;;;;;;5016951;28;20491;-16
2021/03/13 14:22:04;;;;;;;7.90;7.70;;;;;;;;;;5016229;28;20439;-16
2021/03/13 14:24:34;;;;;;;7.87;7.60;;;;;;;;;;5001219;28;20519;-16
2021/03/13 14:27:02;;;;;;;7.97;7.53;;;;;;;;;;5002188;28;20436;-16
2021/03/13 14:29:32;;;;;;;8.27;7.97;;;;;;;;;;5016385;28;20501;-16
2021/03/13 14:32:01;;;;;;;7.33;7.03;;;;;;;;;;4999339;28;20462;-16
2021/03/13 14:34:29;;;;;;;6.50;6.30;;;;;;;;;;5000766;28;20471;-16
2021/03/13 14:36:59;;;;;;;6.97;6.67;;;;;;;;;;4997919;28;20440;-16
2021/03/13 14:39:28;;;;;;;6.37;6.17;;;;;;;;;;5014852;28;20432;-15
2021/03/13 14:41:57;;;;;;;6.80;6.60;;;;;;;;;;5012248;28;20444;-15
2021/03/13 14:44:26;;;;;;;6.20;5.97;;;;;;;;;;5012384;28;20487;-15
2021/03/13 14:46:55;;;;;;;39.80;6.30;;;;;;;;;;5015199;28;21230;-15
2021/03/13 14:49:23;;;;;;;6.03;5.77;;;;;;;;;;5015316;28;20451;-16
2021/03/13 14:51:51;;;;;;;6.30;5.80;;;;;;;;;;4998170;28;20961;-16
2021/03/13 14:54:20;;;;;;;5.63;5.47;;;;;;;;;;5012521;28;20558;-16
2021/03/13 14:56:50;;;;;;;6.40;6.07;;;;;;;;;;5013654;28;20443;-16
2021/03/13 14:59:17;;;;;;;6.50;5.93;;;;;;;;;;5014665;28;20519;-15
2021/03/13 15:01:46;;;;;;;7.10;6.90;;;;;;;;;;5014992;28;20435;-15
2021/03/13 15:04:14;;;;;;;6.67;6.40;;;;;;;;;;5016069;28;20570;-15
2021/03/13 15:06:43;;;;;;;6.30;6.20;;;;;;;;;;5016269;28;20451;-15
2021/03/13 15:09:21;;;;;;;6.60;6.40;;;;;;;;;;5014862;28;20463;-17
2021/03/13 15:11:51;;;;;;;6.50;6.30;;;;;;;;;;5014926;28;20446;-15